sensor_id;sensor_type;location;lat;lon;timestamp;pressure;altitude;pressure_sealevel;temperature;humidity
29371;BME280;16357;52.188;7.838;2023-07-28T00:01:51;99695.59;;;20.88;70.21
29371;BME280;16357;52.188;7.838;2023-07-28T00:04:17;99696.47;;;20.88;70.27
29371;BME280;16357;52.188;7.838;2023-07-28T00:06:44;99696.47;;;20.88;70.09
29371;BME280;16357;52.188;7.838;2023-07-28T00:09:11;99686.38;;;20.89;70.31
29371;BME280;16357;52.188;7.838;2023-07-28T00:11:37;99697.28;;;20.89;70.40
29371;BME280;16357;52.188;7.838;2023-07-28T00:14:04;99684.69;;;20.88;70.35
29371;BME280;16357;52.188;7.838;2023-07-28T00:16:30;99688.53;;;20.87;70.38
29371;BME280;16357;52.188;7.838;2023-07-28T00:18:57;99682.25;;;20.86;70.49
29371;BME280;16357;52.188;7.838;2023-07-28T00:21:24;99684.97;;;20.86;70.48
29371;BME280;16357;52.188;7.838;2023-07-28T00:23:50;99674.06;;;20.86;70.38
29371;BME280;16357;52.188;7.838;2023-07-28T00:26:17;99675.97;;;20.86;70.09
29371;BME280;16357;52.188;7.838;2023-07-28T00:28:43;99666.13;;;20.85;70.25
29371;BME280;16357;52.188;7.838;2023-07-28T00:31:09;99668.84;;;20.85;70.43
29371;BME280;16357;52.188;7.838;2023-07-28T00:33:37;99668.03;;;20.84;70.72
29371;BME280;16357;52.188;7.838;2023-07-28T00:36:04;99678.94;;;20.84;70.67
29371;BME280;16357;52.188;7.838;2023-07-28T00:38:30;99684.38;;;20.84;70.75
29371;BME280;16357;52.188;7.838;2023-07-28T00:40:57;99680.56;;;20.85;70.55
29371;BME280;16357;52.188;7.838;2023-07-28T00:43:24;99689.03;;;20.83;70.58
29371;BME280;16357;52.188;7.838;2023-07-28T00:45:50;99685.47;;;20.83;70.61
29371;BME280;16357;52.188;7.838;2023-07-28T00:48:17;99684.38;;;20.84;70.65
29371;BME280;16357;52.188;7.838;2023-07-28T00:50:45;99689.84;;;20.84;70.45
29371;BME280;16357;52.188;7.838;2023-07-28T00:53:12;99685.47;;;20.83;70.23
29371;BME280;16357;52.188;7.838;2023-07-28T00:55:39;99690.09;;;20.82;70.73
29371;BME280;16357;52.188;7.838;2023-07-28T00:58:08;99686.53;;;20.82;70.59
29371;BME280;16357;52.188;7.838;2023-07-28T01:00:34;99694.72;;;20.82;70.58
29371;BME280;16357;52.188;7.838;2023-07-28T01:03:01;99699.34;;;20.81;70.64
29371;BME280;16357;52.188;7.838;2023-07-28T01:08:56;99699.59;;;20.80;70.59
29371;BME280;16357;52.188;7.838;2023-07-28T01:11:23;99708.84;;;20.79;70.81
29371;BME280;16357;52.188;7.838;2023-07-28T01:13:50;99703.41;;;20.79;70.79
29371;BME280;16357;52.188;7.838;2023-07-28T01:16:16;99709.94;;;20.78;70.68
29371;BME280;16357;52.188;7.838;2023-07-28T01:18:43;99702.81;;;20.77;71.09
29371;BME280;16357;52.188;7.838;2023-07-28T01:21:20;99702.56;;;20.78;70.95
29371;BME280;16357;52.188;7.838;2023-07-28T01:26:36;99702.56;;;20.78;70.80
29371;BME280;16357;52.188;7.838;2023-07-28T01:29:04;99697.34;;;20.77;71.02
29371;BME280;16357;52.188;7.838;2023-07-28T01:31:31;99699.03;;;20.78;71.14
29371;BME280;16357;52.188;7.838;2023-07-28T01:33:58;99701.75;;;20.78;71.27
29371;BME280;16357;52.188;7.838;2023-07-28T01:36:24;99702.56;;;20.78;71.15
29371;BME280;16357;52.188;7.838;2023-07-28T01:38:51;99703.41;;;20.79;71.07
29371;BME280;16357;52.188;7.838;2023-07-28T01:41:18;99703.41;;;20.79;70.97
29371;BME280;16357;52.188;7.838;2023-07-28T01:43:44;99706.69;;;20.81;70.79
29371;BME280;16357;52.188;7.838;2023-07-28T01:46:10;99708.84;;;20.79;70.92
29371;BME280;16357;52.188;7.838;2023-07-28T01:48:37;99705.03;;;20.80;71.12
29371;BME280;16357;52.188;7.838;2023-07-28T01:51:03;99697.13;;;20.78;70.91
29371;BME280;16357;52.188;7.838;2023-07-28T01:53:30;99700.66;;;20.79;71.05
29371;BME280;16357;52.188;7.838;2023-07-28T01:55:56;99706.13;;;20.79;70.73
29371;BME280;16357;52.188;7.838;2023-07-28T01:58:23;99710.47;;;20.80;71.37
29371;BME280;16357;52.188;7.838;2023-07-28T02:00:49;99704.22;;;20.79;71.10
29371;BME280;16357;52.188;7.838;2023-07-28T02:03:16;99703.41;;;20.79;71.05
29371;BME280;16357;52.188;7.838;2023-07-28T02:05:42;99710.47;;;20.80;70.92
29371;BME280;16357;52.188;7.838;2023-07-28T02:08:10;99706.94;;;20.79;71.29
29371;BME280;16357;52.188;7.838;2023-07-28T02:10:37;99713.22;;;20.80;71.18
29371;BME280;16357;52.188;7.838;2023-07-28T02:13:04;99705.88;;;20.80;71.17
29371;BME280;16357;52.188;7.838;2023-07-28T02:15:30;99701.25;;;20.81;71.30
29371;BME280;16357;52.188;7.838;2023-07-28T02:17:56;99694.97;;;20.80;71.06
29371;BME280;16357;52.188;7.838;2023-07-28T02:20:23;99703.97;;;20.81;71.08
29371;BME280;16357;52.188;7.838;2023-07-28T02:22:49;99706.69;;;20.81;71.20
29371;BME280;16357;52.188;7.838;2023-07-28T02:25:16;99701.25;;;20.81;71.14
29371;BME280;16357;52.188;7.838;2023-07-28T02:27:42;99699.59;;;20.80;71.00
29371;BME280;16357;52.188;7.838;2023-07-28T02:30:09;99709.44;;;20.81;71.44
29371;BME280;16357;52.188;7.838;2023-07-28T02:32:36;99706.94;;;20.79;71.39
29371;BME280;16357;52.188;7.838;2023-07-28T02:35:03;99709.66;;;20.79;71.35
29371;BME280;16357;52.188;7.838;2023-07-28T02:37:30;99706.94;;;20.79;71.47
29371;BME280;16357;52.188;7.838;2023-07-28T02:39:56;99706.13;;;20.79;71.17
29371;BME280;16357;52.188;7.838;2023-07-28T02:42:22;99713.22;;;20.80;71.39
29371;BME280;16357;52.188;7.838;2023-07-28T02:44:50;99712.38;;;20.79;71.11
29371;BME280;16357;52.188;7.838;2023-07-28T02:47:16;99715.94;;;20.80;71.23
29371;BME280;16357;52.188;7.838;2023-07-28T02:49:43;99722.25;;;20.80;71.31
29371;BME280;16357;52.188;7.838;2023-07-28T02:52:09;99712.16;;;20.81;71.14
29371;BME280;16357;52.188;7.838;2023-07-28T02:54:36;99707.53;;;20.81;71.24
29371;BME280;16357;52.188;7.838;2023-07-28T02:57:02;99713.78;;;20.82;71.24
29371;BME280;16357;52.188;7.838;2023-07-28T02:59:29;99712.16;;;20.81;71.22
29371;BME280;16357;52.188;7.838;2023-07-28T03:01:55;99716.53;;;20.82;71.25
29371;BME280;16357;52.188;7.838;2023-07-28T03:04:23;99724.69;;;20.82;70.94
29371;BME280;16357;52.188;7.838;2023-07-28T03:06:50;99733.69;;;20.82;71.39
29371;BME280;16357;52.188;7.838;2023-07-28T03:09:16;99720.91;;;20.83;71.29
29371;BME280;16357;52.188;7.838;2023-07-28T03:11:43;99728.00;;;20.84;71.33
29371;BME280;16357;52.188;7.838;2023-07-28T03:14:10;99729.09;;;20.83;71.11
29371;BME280;16357;52.188;7.838;2023-07-28T03:16:36;99731.81;;;20.83;71.19
29371;BME280;16357;52.188;7.838;2023-07-28T03:19:03;99730.97;;;20.82;71.28
29371;BME280;16357;52.188;7.838;2023-07-28T03:21:30;99734.78;;;20.81;71.27
29371;BME280;16357;52.188;7.838;2023-07-28T03:23:57;99732.06;;;20.81;71.22
29371;BME280;16357;52.188;7.838;2023-07-28T03:26:24;99733.97;;;20.81;71.35
29371;BME280;16357;52.188;7.838;2023-07-28T03:28:50;99735.88;;;20.80;71.44
29371;BME280;16357;52.188;7.838;2023-07-28T03:31:16;99744.03;;;20.80;71.17
29371;BME280;16357;52.188;7.838;2023-07-28T03:33:43;99738.59;;;20.80;71.38
29371;BME280;16357;52.188;7.838;2023-07-28T03:36:09;99747.59;;;20.81;71.41
29371;BME280;16357;52.188;7.838;2023-07-28T03:38:36;99741.31;;;20.80;71.77
29371;BME280;16357;52.188;7.838;2023-07-28T03:41:02;99744.03;;;20.80;71.51
29371;BME280;16357;52.188;7.838;2023-07-28T03:43:29;99736.94;;;20.79;71.51
29371;BME280;16357;52.188;7.838;2023-07-28T03:45:55;99742.16;;;20.81;71.78
29371;BME280;16357;52.188;7.838;2023-07-28T03:48:22;99741.31;;;20.80;71.80
29371;BME280;16357;52.188;7.838;2023-07-28T03:50:48;99750.31;;;20.81;71.75
29371;BME280;16357;52.188;7.838;2023-07-28T03:53:14;99742.16;;;20.81;71.83
29371;BME280;16357;52.188;7.838;2023-07-28T03:55:41;99750.31;;;20.81;71.51
29371;BME280;16357;52.188;7.838;2023-07-28T03:58:07;99744.88;;;20.81;71.86
29371;BME280;16357;52.188;7.838;2023-07-28T04:00:34;99747.59;;;20.81;71.60
29371;BME280;16357;52.188;7.838;2023-07-28T04:03:00;99744.03;;;20.80;71.87
29371;BME280;16357;52.188;7.838;2023-07-28T04:05:27;99754.09;;;20.80;72.01
29371;BME280;16357;52.188;7.838;2023-07-28T04:07:53;99749.50;;;20.80;71.67
29371;BME280;16357;52.188;7.838;2023-07-28T04:10:20;99751.38;;;20.80;71.88
29371;BME280;16357;52.188;7.838;2023-07-28T04:12:46;99749.50;;;20.80;71.76
29371;BME280;16357;52.188;7.838;2023-07-28T04:15:12;99749.50;;;20.80;71.99
29371;BME280;16357;52.188;7.838;2023-07-28T04:17:39;99749.75;;;20.79;72.16
29371;BME280;16357;52.188;7.838;2023-07-28T04:20:06;99764.19;;;20.79;72.01
29371;BME280;16357;52.188;7.838;2023-07-28T04:22:32;99758.72;;;20.79;72.08
29371;BME280;16357;52.188;7.838;2023-07-28T04:24:59;99757.91;;;20.79;71.96
29371;BME280;16357;52.188;7.838;2023-07-28T04:27:25;99757.91;;;20.79;72.10
29371;BME280;16357;52.188;7.838;2023-07-28T04:29:53;99757.09;;;20.78;72.08
29371;BME280;16357;52.188;7.838;2023-07-28T04:32:19;99754.38;;;20.78;72.24
29371;BME280;16357;52.188;7.838;2023-07-28T04:34:48;99754.38;;;20.78;72.08
29371;BME280;16357;52.188;7.838;2023-07-28T04:37:15;99764.19;;;20.79;72.25
29371;BME280;16357;52.188;7.838;2023-07-28T04:39:41;99767.72;;;20.80;72.19
29371;BME280;16357;52.188;7.838;2023-07-28T04:42:08;99766.69;;;20.81;72.27
29371;BME280;16357;52.188;7.838;2023-07-28T04:44:34;99773.78;;;20.82;72.39
29371;BME280;16357;52.188;7.838;2023-07-28T04:47:00;99770.00;;;20.83;72.49
29371;BME280;16357;52.188;7.838;2023-07-28T04:49:27;99780.91;;;20.83;72.57
29371;BME280;16357;52.188;7.838;2023-07-28T04:51:53;99779.81;;;20.84;72.37
29371;BME280;16357;52.188;7.838;2023-07-28T04:54:20;99780.41;;;20.86;72.39
29371;BME280;16357;52.188;7.838;2023-07-28T04:56:46;99774.69;;;20.88;72.38
29371;BME280;16357;52.188;7.838;2023-07-28T04:59:16;99779.06;;;20.89;72.57
29371;BME280;16357;52.188;7.838;2023-07-28T05:01:42;99784.25;;;20.90;72.58
29371;BME280;16357;52.188;7.838;2023-07-28T05:04:08;99789.47;;;20.92;72.70
29371;BME280;16357;52.188;7.838;2023-07-28T05:06:35;99786.25;;;20.95;72.25
29371;BME280;16357;52.188;7.838;2023-07-28T05:09:01;99790.38;;;20.97;72.20
29371;BME280;16357;52.188;7.838;2023-07-28T05:11:28;99781.69;;;21.00;72.13
29371;BME280;16357;52.188;7.838;2023-07-28T05:13:54;99783.38;;;21.01;72.18
29371;BME280;16357;52.188;7.838;2023-07-28T05:16:21;99787.50;;;21.04;71.32
29371;BME280;16357;52.188;7.838;2023-07-28T05:18:47;99791.63;;;21.07;72.14
29371;BME280;16357;52.188;7.838;2023-07-28T05:21:14;99788.41;;;21.10;72.22
29371;BME280;16357;52.188;7.838;2023-07-28T05:23:40;99788.72;;;21.13;72.17
29371;BME280;16357;52.188;7.838;2023-07-28T05:26:06;99792.63;;;21.17;72.63
29371;BME280;16357;52.188;7.838;2023-07-28T05:28:34;99793.75;;;21.21;72.06
29371;BME280;16357;52.188;7.838;2023-07-28T05:31:05;99790.28;;;21.26;72.04
29371;BME280;16357;52.188;7.838;2023-07-28T05:33:31;99795.22;;;21.29;72.03
29371;BME280;16357;52.188;7.838;2023-07-28T05:36:07;99792.56;;;21.34;71.64
29371;BME280;16357;52.188;7.838;2023-07-28T05:38:34;99796.72;;;21.37;71.14
29371;BME280;16357;52.188;7.838;2023-07-28T05:41:02;99795.41;;;21.39;71.03
29371;BME280;16357;52.188;7.838;2023-07-28T05:43:30;99789.72;;;21.41;71.39
29371;BME280;16357;52.188;7.838;2023-07-28T05:45:58;99802.03;;;21.43;71.26
29371;BME280;16357;52.188;7.838;2023-07-28T05:48:24;99799.84;;;21.45;71.50
29371;BME280;16357;52.188;7.838;2023-07-28T05:50:51;99808.13;;;21.51;71.46
29371;BME280;16357;52.188;7.838;2023-07-28T05:53:20;99804.06;;;21.53;71.62
29371;BME280;16357;52.188;7.838;2023-07-28T05:55:48;99797.84;;;21.58;71.45
29371;BME280;16357;52.188;7.838;2023-07-28T05:58:15;99807.75;;;21.64;71.16
29371;BME280;16357;52.188;7.838;2023-07-28T06:00:41;99800.72;;;21.68;71.10
29371;BME280;16357;52.188;7.838;2023-07-28T06:03:10;99796.41;;;21.72;71.50
29371;BME280;16357;52.188;7.838;2023-07-28T06:05:40;99803.59;;;21.78;71.53
29371;BME280;16357;52.188;7.838;2023-07-28T06:08:07;99806.38;;;21.83;71.19
29371;BME280;16357;52.188;7.838;2023-07-28T06:10:34;99810.81;;;21.89;70.87
29371;BME280;16357;52.188;7.838;2023-07-28T06:13:01;99818.50;;;21.92;70.81
29371;BME280;16357;52.188;7.838;2023-07-28T06:15:27;99818.56;;;21.98;70.52
29371;BME280;16357;52.188;7.838;2023-07-28T06:17:54;99817.81;;;22.02;70.25
29371;BME280;16357;52.188;7.838;2023-07-28T06:20:20;99820.84;;;22.06;69.99
29371;BME280;16357;52.188;7.838;2023-07-28T06:22:46;99825.81;;;22.09;69.65
29371;BME280;16357;52.188;7.838;2023-07-28T06:25:13;99823.66;;;22.11;69.57
29371;BME280;16357;52.188;7.838;2023-07-28T06:27:39;99833.81;;;22.16;70.10
29371;BME280;16357;52.188;7.838;2023-07-28T06:30:06;99832.72;;;22.17;69.83
29371;BME280;16357;52.188;7.838;2023-07-28T06:32:33;99837.72;;;22.20;69.64
29371;BME280;16357;52.188;7.838;2023-07-28T06:35:00;99839.69;;;22.24;69.77
29371;BME280;16357;52.188;7.838;2023-07-28T06:37:26;99840.81;;;22.28;69.48
29371;BME280;16357;52.188;7.838;2023-07-28T06:39:53;99842.81;;;22.33;69.47
29371;BME280;16357;52.188;7.838;2023-07-28T06:42:22;99850.22;;;22.38;69.87
29371;BME280;16357;52.188;7.838;2023-07-28T06:44:50;99853.00;;;22.43;70.01
29371;BME280;16357;52.188;7.838;2023-07-28T06:47:18;99851.16;;;22.48;69.54
29371;BME280;16357;52.188;7.838;2023-07-28T06:49:44;99854.78;;;22.54;68.99
29371;BME280;16357;52.188;7.838;2023-07-28T06:52:11;99861.13;;;22.60;69.11
29371;BME280;16357;52.188;7.838;2023-07-28T06:54:37;99853.53;;;22.67;68.65
29371;BME280;16357;52.188;7.838;2023-07-28T06:57:05;99854.44;;;22.72;68.94
29371;BME280;16357;52.188;7.838;2023-07-28T06:59:32;99857.75;;;22.79;68.49
29371;BME280;16357;52.188;7.838;2023-07-28T07:01:59;99861.34;;;22.85;68.12
29371;BME280;16357;52.188;7.838;2023-07-28T07:04:26;99860.34;;;22.91;67.43
29371;BME280;16357;52.188;7.838;2023-07-28T07:06:52;99864.78;;;22.97;67.03
29371;BME280;16357;52.188;7.838;2023-07-28T07:09:18;99871.13;;;23.03;66.89
29371;BME280;16357;52.188;7.838;2023-07-28T07:11:46;99875.84;;;23.08;67.27
29371;BME280;16357;52.188;7.838;2023-07-28T07:14:13;99878.63;;;23.13;67.15
29371;BME280;16357;52.188;7.838;2023-07-28T07:16:40;99875.94;;;23.18;67.20
29371;BME280;16357;52.188;7.838;2023-07-28T07:19:07;99882.00;;;23.25;66.86
29371;BME280;16357;52.188;7.838;2023-07-28T07:21:35;99888.88;;;23.33;66.45
29371;BME280;16357;52.188;7.838;2023-07-28T07:24:05;99882.66;;;23.42;66.22
29371;BME280;16357;52.188;7.838;2023-07-28T07:26:31;99886.28;;;23.48;65.66
29371;BME280;16357;52.188;7.838;2023-07-28T07:28:58;99883.56;;;23.53;65.44
29371;BME280;16357;52.188;7.838;2023-07-28T07:31:25;99890.19;;;23.57;65.65
29371;BME280;16357;52.188;7.838;2023-07-28T07:33:51;99892.97;;;23.62;65.86
29371;BME280;16357;52.188;7.838;2023-07-28T07:36:19;99895.72;;;23.67;65.50
29371;BME280;16357;52.188;7.838;2023-07-28T07:38:45;99889.47;;;23.72;64.97
29371;BME280;16357;52.188;7.838;2023-07-28T07:41:13;99900.75;;;23.76;64.91
29371;BME280;16357;52.188;7.838;2023-07-28T07:43:46;99898.81;;;23.76;63.84
29371;BME280;16357;52.188;7.838;2023-07-28T07:46:14;99899.63;;;23.77;63.91
29371;BME280;16357;52.188;7.838;2023-07-28T07:48:40;99906.78;;;23.78;64.49
29371;BME280;16357;52.188;7.838;2023-07-28T07:51:07;99901.59;;;23.81;64.70
29371;BME280;16357;52.188;7.838;2023-07-28T07:53:34;99892.84;;;23.84;64.50
29371;BME280;16357;52.188;7.838;2023-07-28T07:56:06;99903.59;;;23.91;64.55
29371;BME280;16357;52.188;7.838;2023-07-28T07:58:34;99907.41;;;23.95;63.88
29371;BME280;16357;52.188;7.838;2023-07-28T08:01:00;99912.69;;;24.02;64.41
29371;BME280;16357;52.188;7.838;2023-07-28T08:03:27;99907.75;;;24.09;64.24
29371;BME280;16357;52.188;7.838;2023-07-28T08:05:54;99915.50;;;24.17;63.75
29371;BME280;16357;52.188;7.838;2023-07-28T08:08:20;99921.28;;;24.26;63.85
29371;BME280;16357;52.188;7.838;2023-07-28T08:10:47;99919.13;;;24.33;63.02
29371;BME280;16357;52.188;7.838;2023-07-28T08:13:16;99926.84;;;24.41;63.08
29371;BME280;16357;52.188;7.838;2023-07-28T08:15:43;99921.88;;;24.43;62.10
29371;BME280;16357;52.188;7.838;2023-07-28T08:18:13;99926.91;;;24.46;62.03
29371;BME280;16357;52.188;7.838;2023-07-28T08:20:41;99926.56;;;24.43;61.34
29371;BME280;16357;52.188;7.838;2023-07-28T08:23:07;99926.00;;;24.41;62.46
29371;BME280;16357;52.188;7.838;2023-07-28T08:25:34;99924.09;;;24.41;62.49
29371;BME280;16357;52.188;7.838;2023-07-28T08:28:01;99926.34;;;24.44;62.92
29371;BME280;16357;52.188;7.838;2023-07-28T08:30:27;99931.28;;;24.47;62.94
29371;BME280;16357;52.188;7.838;2023-07-28T08:32:54;99934.59;;;24.49;61.92
29371;BME280;16357;52.188;7.838;2023-07-28T08:35:20;99940.34;;;24.53;61.92
29371;BME280;16357;52.188;7.838;2023-07-28T08:37:47;99938.16;;;24.55;62.33
29371;BME280;16357;52.188;7.838;2023-07-28T08:40:14;99938.44;;;24.59;62.21
29371;BME280;16357;52.188;7.838;2023-07-28T08:42:40;99931.34;;;24.63;62.21
29371;BME280;16357;52.188;7.838;2023-07-28T08:45:07;99942.59;;;24.66;61.86
29371;BME280;16357;52.188;7.838;2023-07-28T08:47:36;99935.47;;;24.70;61.32
29371;BME280;16357;52.188;7.838;2023-07-28T08:50:03;99940.16;;;24.75;61.34
29371;BME280;16357;52.188;7.838;2023-07-28T08:52:29;99941.25;;;24.79;61.45
29371;BME280;16357;52.188;7.838;2023-07-28T08:54:56;99939.63;;;24.83;60.71
29371;BME280;16357;52.188;7.838;2023-07-28T08:57:22;99947.31;;;24.86;60.84
29371;BME280;16357;52.188;7.838;2023-07-28T08:59:50;99953.38;;;24.88;60.74
29371;BME280;16357;52.188;7.838;2023-07-28T09:02:18;99950.34;;;24.90;60.10
29371;BME280;16357;52.188;7.838;2023-07-28T09:04:47;99952.25;;;24.89;60.24
29371;BME280;16357;52.188;7.838;2023-07-28T09:07:14;99960.75;;;24.88;59.53
29371;BME280;16357;52.188;7.838;2023-07-28T09:09:41;99962.09;;;24.85;59.62
29371;BME280;16357;52.188;7.838;2023-07-28T09:12:08;99959.09;;;24.82;60.68
29371;BME280;16357;52.188;7.838;2023-07-28T09:14:36;99965.41;;;24.82;60.97
29371;BME280;16357;52.188;7.838;2023-07-28T09:17:09;99962.97;;;24.86;61.42
29371;BME280;16357;52.188;7.838;2023-07-28T09:19:50;99970.91;;;24.92;60.83
29371;BME280;16357;52.188;7.838;2023-07-28T09:22:18;99967.38;;;24.97;60.80
29371;BME280;16357;52.188;7.838;2023-07-28T09:24:46;99969.59;;;25.05;60.80
29371;BME280;16357;52.188;7.838;2023-07-28T09:27:24;99976.47;;;25.13;60.38
29371;BME280;16357;52.188;7.838;2023-07-28T09:29:53;99976.50;;;25.18;59.70
29371;BME280;16357;52.188;7.838;2023-07-28T09:32:29;99968.84;;;25.25;59.30
29371;BME280;16357;52.188;7.838;2023-07-28T09:35:11;99976.78;;;25.27;59.41
29371;BME280;16357;52.188;7.838;2023-07-28T09:37:41;99977.06;;;25.25;59.12
29371;BME280;16357;52.188;7.838;2023-07-28T09:40:09;99979.50;;;25.22;59.07
29371;BME280;16357;52.188;7.838;2023-07-28T09:42:42;99973.47;;;25.19;59.38
29371;BME280;16357;52.188;7.838;2023-07-28T09:45:10;99981.44;;;25.16;59.56
29371;BME280;16357;52.188;7.838;2023-07-28T09:47:58;99992.38;;;25.11;59.28
29371;BME280;16357;52.188;7.838;2023-07-28T09:50:26;99986.88;;;25.06;59.86
29371;BME280;16357;52.188;7.838;2023-07-28T09:52:57;99989.34;;;25.02;60.42
29371;BME280;16357;52.188;7.838;2023-07-28T09:55:24;99992.34;;;25.01;60.96
29371;BME280;16357;52.188;7.838;2023-07-28T09:57:52;99992.66;;;25.04;60.54
29371;BME280;16357;52.188;7.838;2023-07-28T10:00:21;99999.22;;;25.08;59.95
29371;BME280;16357;52.188;7.838;2023-07-28T10:02:49;99996.75;;;25.12;60.02
29371;BME280;16357;52.188;7.838;2023-07-28T10:05:16;99993.50;;;25.15;60.32
29371;BME280;16357;52.188;7.838;2023-07-28T10:07:44;100004.22;;;25.16;59.53
29371;BME280;16357;52.188;7.838;2023-07-28T10:10:14;100005.03;;;25.17;59.41
29371;BME280;16357;52.188;7.838;2023-07-28T10:12:42;100003.91;;;25.13;59.04
29371;BME280;16357;52.188;7.838;2023-07-28T10:15:13;100010.47;;;25.12;59.62
29371;BME280;16357;52.188;7.838;2023-07-28T10:17:46;100013.75;;;25.09;59.50
29371;BME280;16357;52.188;7.838;2023-07-28T10:20:34;100015.97;;;25.07;59.58
29371;BME280;16357;52.188;7.838;2023-07-28T10:23:15;100014.31;;;25.06;59.38
29371;BME280;16357;52.188;7.838;2023-07-28T10:25:43;100024.19;;;25.02;59.39
29371;BME280;16357;52.188;7.838;2023-07-28T10:28:27;100023.63;;;25.00;59.06
29371;BME280;16357;52.188;7.838;2023-07-28T10:30:55;100025.25;;;24.95;59.58
29371;BME280;16357;52.188;7.838;2023-07-28T10:33:33;100021.94;;;24.93;59.63
29371;BME280;16357;52.188;7.838;2023-07-28T10:41:30;100028.28;;;24.94;60.20
29371;BME280;16357;52.188;7.838;2023-07-28T10:43:57;100023.63;;;24.94;60.08
29371;BME280;16357;52.188;7.838;2023-07-28T10:46:23;100033.50;;;24.95;59.05
29371;BME280;16357;52.188;7.838;2023-07-28T10:48:50;100030.75;;;24.95;58.93
29371;BME280;16357;52.188;7.838;2023-07-28T10:51:24;100030.19;;;24.93;59.16
29371;BME280;16357;52.188;7.838;2023-07-28T10:53:55;100031.00;;;24.89;58.99
29371;BME280;16357;52.188;7.838;2023-07-28T10:56:22;100029.59;;;24.81;59.25
29371;BME280;16357;52.188;7.838;2023-07-28T11:01:34;100029.56;;;24.71;59.26
29371;BME280;16357;52.188;7.838;2023-07-28T11:04:15;100033.09;;;24.66;60.26
29371;BME280;16357;52.188;7.838;2023-07-28T11:06:44;100028.69;;;24.60;60.42
29371;BME280;16357;52.188;7.838;2023-07-28T11:09:12;100033.34;;;24.60;60.67
29371;BME280;16357;52.188;7.838;2023-07-28T11:11:39;100026.50;;;24.62;61.05
29371;BME280;16357;52.188;7.838;2023-07-28T11:14:08;100022.94;;;24.67;60.38
29371;BME280;16357;52.188;7.838;2023-07-28T11:16:37;100024.34;;;24.74;60.62
29371;BME280;16357;52.188;7.838;2023-07-28T11:19:10;100022.75;;;24.84;60.56
29371;BME280;16357;52.188;7.838;2023-07-28T11:21:40;100027.44;;;24.93;59.80
29371;BME280;16357;52.188;7.838;2023-07-28T11:24:07;100019.53;;;25.02;60.23
29371;BME280;16357;52.188;7.838;2023-07-28T11:26:38;100016.25;;;25.10;59.12
29371;BME280;16357;52.188;7.838;2023-07-28T11:29:05;100018.50;;;25.18;59.09
29371;BME280;16357;52.188;7.838;2023-07-28T11:31:32;100015.75;;;25.24;59.03
29371;BME280;16357;52.188;7.838;2023-07-28T11:34:00;100019.09;;;25.31;58.58
29371;BME280;16357;52.188;7.838;2023-07-28T11:36:28;100016.06;;;25.37;58.53
29371;BME280;16357;52.188;7.838;2023-07-28T11:38:57;100024.88;;;25.50;58.13
29371;BME280;16357;52.188;7.838;2023-07-28T11:41:24;100015.53;;;25.61;57.86
29371;BME280;16357;52.188;7.838;2023-07-28T11:43:51;100024.59;;;25.72;57.49
29371;BME280;16357;52.188;7.838;2023-07-28T11:46:38;100022.66;;;25.82;57.10
29371;BME280;16357;52.188;7.838;2023-07-28T11:49:18;100022.44;;;25.89;56.84
29371;BME280;16357;52.188;7.838;2023-07-28T11:51:50;100027.13;;;25.94;56.79
29371;BME280;16357;52.188;7.838;2023-07-28T11:54:19;100031.75;;;25.98;56.51
29371;BME280;16357;52.188;7.838;2023-07-28T11:56:49;100023.81;;;26.02;56.37
29371;BME280;16357;52.188;7.838;2023-07-28T11:59:19;100024.63;;;26.08;56.33
29371;BME280;16357;52.188;7.838;2023-07-28T12:02:07;100025.69;;;26.17;56.44
29371;BME280;16357;52.188;7.838;2023-07-28T12:04:38;100022.66;;;26.23;56.03
29371;BME280;16357;52.188;7.838;2023-07-28T12:07:15;100015.47;;;26.33;56.59
29371;BME280;16357;52.188;7.838;2023-07-28T12:12:30;100016.81;;;26.50;55.54
29371;BME280;16357;52.188;7.838;2023-07-28T12:15:25;100019.28;;;26.67;55.67
29371;BME280;16357;52.188;7.838;2023-07-28T12:20:35;100019.94;;;26.99;54.98
29371;BME280;16357;52.188;7.838;2023-07-28T12:23:06;100028.44;;;27.18;53.73
29371;BME280;16357;52.188;7.838;2023-07-28T12:25:36;100020.03;;;27.33;53.31
29371;BME280;16357;52.188;7.838;2023-07-28T12:28:03;100016.38;;;27.48;52.99
29371;BME280;16357;52.188;7.838;2023-07-28T12:30:30;100012.69;;;27.63;53.09
29371;BME280;16357;52.188;7.838;2023-07-28T12:32:57;100013.97;;;27.75;52.64
29371;BME280;16357;52.188;7.838;2023-07-28T12:35:29;100014.13;;;27.89;52.13
29371;BME280;16357;52.188;7.838;2023-07-28T12:38:04;100016.81;;;27.99;51.81
29371;BME280;16357;52.188;7.838;2023-07-28T12:40:51;100011.47;;;28.08;51.30
29371;BME280;16357;52.188;7.838;2023-07-28T12:43:21;100016.41;;;28.11;50.78
29371;BME280;16357;52.188;7.838;2023-07-28T12:45:51;100018.06;;;28.12;50.43
29371;BME280;16357;52.188;7.838;2023-07-28T12:48:22;100015.59;;;28.11;50.18
29371;BME280;16357;52.188;7.838;2023-07-28T12:50:48;100003.19;;;28.08;50.11
29371;BME280;16357;52.188;7.838;2023-07-28T12:53:16;100003.25;;;28.03;50.24
29371;BME280;16357;52.188;7.838;2023-07-28T12:55:48;100004.66;;;28.00;49.92
29371;BME280;16357;52.188;7.838;2023-07-28T12:58:18;100012.38;;;27.98;49.81
29371;BME280;16357;52.188;7.838;2023-07-28T13:00:47;100001.94;;;27.95;49.59
29371;BME280;16357;52.188;7.838;2023-07-28T13:03:16;100013.56;;;27.92;49.82
29371;BME280;16357;52.188;7.838;2023-07-28T13:05:43;100008.63;;;27.89;49.73
29371;BME280;16357;52.188;7.838;2023-07-28T13:08:10;100004.19;;;27.88;50.09
29371;BME280;16357;52.188;7.838;2023-07-28T13:10:37;100003.69;;;27.86;50.76
29371;BME280;16357;52.188;7.838;2023-07-28T13:13:06;100014.13;;;27.89;50.85
29371;BME280;16357;52.188;7.838;2023-07-28T13:15:39;100003.59;;;27.96;50.40
29371;BME280;16357;52.188;7.838;2023-07-28T13:18:06;100006.81;;;28.04;50.86
29371;BME280;16357;52.188;7.838;2023-07-28T13:20:32;100007.53;;;28.14;50.91
29371;BME280;16357;52.188;7.838;2023-07-28T13:22:59;100009.59;;;28.28;50.26